Time;durP1;ratioP1;P1;durP2;ratioP2;P2;SDS_P1;SDS_P2;PMS_P1;PMS_P2;Temp;Humidity;BMP_temperature;BMP_pressure;BME280_temperature;BME280_humidity;BME280_pressure;Samples;Min_cycle;Max_cycle;Signal;HPM_P1;HPM_P2
2023/04/06 00:01:19;;;;;;;19.10;13.15;;;;;;;;;;6277520;22;20464;-72
2023/04/06 00:03:47;;;;;;;17.48;12.75;;;;;;;;;;6277563;22;20024;-72
2023/04/06 00:06:15;;;;;;;17.85;13.05;;;;;;;;;;6277692;22;20067;-72
2023/04/06 00:08:44;;;;;;;17.35;13.70;;;;;;;;;;6277176;22;20012;-72
2023/04/06 00:11:12;;;;;;;16.17;11.93;;;;;;;;;;6277335;22;20016;-72
2023/04/06 00:13:39;;;;;;;17.05;13.35;;;;;;;;;;6277198;22;20061;-72
2023/04/06 00:16:07;;;;;;;17.45;12.30;;;;;;;;;;6277177;22;20074;-72
2023/04/06 00:18:34;;;;;;;17.98;13.10;;;;;;;;;;6277015;22;20015;-71
2023/04/06 00:21:02;;;;;;;16.40;12.68;;;;;;;;;;6277387;22;20440;-72
2023/04/06 00:23:30;;;;;;;17.02;13.27;;;;;;;;;;6277317;22;20074;-71
2023/04/06 00:25:57;;;;;;;16.55;12.43;;;;;;;;;;6277347;22;20011;-72
2023/04/06 00:28:26;;;;;;;18.60;13.35;;;;;;;;;;6277485;22;20452;-71
2023/04/06 00:30:55;;;;;;;16.67;13.00;;;;;;;;;;6277358;22;20959;-72
2023/04/06 00:33:23;;;;;;;17.08;12.85;;;;;;;;;;6250925;22;20030;-71
2023/04/06 00:35:51;;;;;;;15.55;11.85;;;;;;;;;;6276982;22;20020;-72
2023/04/06 00:38:19;;;;;;;17.75;13.10;;;;;;;;;;6250229;22;20098;-72
2023/04/06 00:40:46;;;;;;;16.58;12.80;;;;;;;;;;6225026;22;20051;-71
2023/04/06 00:43:14;;;;;;;15.18;11.90;;;;;;;;;;6250050;22;20019;-71
2023/04/06 00:45:42;;;;;;;18.70;13.80;;;;;;;;;;6276959;22;20035;-71
2023/04/06 00:48:11;;;;;;;16.85;12.20;;;;;;;;;;6277012;22;20031;-71
2023/04/06 00:50:38;;;;;;;15.85;12.50;;;;;;;;;;6249991;22;20069;-71
2023/04/06 00:53:06;;;;;;;17.13;13.40;;;;;;;;;;6249709;22;20023;-71
2023/04/06 00:55:35;;;;;;;19.17;13.20;;;;;;;;;;6276920;22;20046;-71
2023/04/06 00:58:03;;;;;;;19.23;13.60;;;;;;;;;;6249693;22;20016;-72
2023/04/06 01:00:38;;;;;;;17.88;13.68;;;;;;;;;;6250035;22;20019;-71
2023/04/06 01:03:08;;;;;;;18.75;13.07;;;;;;;;;;6249514;22;20039;-71
2023/04/06 01:05:40;;;;;;;18.70;13.35;;;;;;;;;;6249709;22;20020;-71
2023/04/06 01:08:16;;;;;;;18.45;13.07;;;;;;;;;;6249696;22;20031;-72
2023/04/06 01:10:45;;;;;;;19.73;14.05;;;;;;;;;;6249370;22;20024;-72
2023/04/06 01:13:23;;;;;;;19.30;13.77;;;;;;;;;;6249579;22;20350;-72
2023/04/06 01:15:54;;;;;;;17.92;13.02;;;;;;;;;;6276688;22;20094;-72
2023/04/06 01:18:29;;;;;;;19.13;14.15;;;;;;;;;;6249506;22;20030;-72
2023/04/06 01:21:15;;;;;;;20.58;14.55;;;;;;;;;;6249558;22;20381;-72
2023/04/06 01:24:03;;;;;;;19.27;13.38;;;;;;;;;;6213842;22;20066;-71
2023/04/06 01:26:41;;;;;;;18.13;13.70;;;;;;;;;;6249420;22;20020;-71
2023/04/06 01:29:10;;;;;;;22.77;15.35;;;;;;;;;;6249408;22;20019;-71
2023/04/06 01:31:38;;;;;;;20.17;13.95;;;;;;;;;;6249252;22;20023;-72
2023/04/06 01:34:05;;;;;;;20.00;14.50;;;;;;;;;;6249707;22;20027;-71
2023/04/06 01:36:33;;;;;;;19.80;13.90;;;;;;;;;;6276631;22;20015;-71
2023/04/06 01:39:20;;;;;;;19.33;14.32;;;;;;;;;;6249525;22;20012;-71
2023/04/06 01:41:47;;;;;;;18.58;13.90;;;;;;;;;;6249461;22;20077;-71
2023/04/06 01:44:20;;;;;;;19.45;14.38;;;;;;;;;;6249742;22;20020;-71
2023/04/06 01:46:54;;;;;;;19.48;13.57;;;;;;;;;;6249089;22;20034;-71
2023/04/06 01:49:22;;;;;;;21.27;14.20;;;;;;;;;;6249350;22;20334;-71
2023/04/06 01:51:54;;;;;;;20.13;14.32;;;;;;;;;;6249163;22;20022;-72
2023/04/06 01:54:22;;;;;;;22.35;15.40;;;;;;;;;;6249242;22;20089;-71
2023/04/06 01:57:11;;;;;;;20.55;14.73;;;;;;;;;;6249591;22;20019;-71
2023/04/06 02:00:02;;;;;;;21.00;13.98;;;;;;;;;;6274974;22;20027;-71
2023/04/06 02:02:48;;;;;;;20.40;14.00;;;;;;;;;;6249022;22;20020;-71
2023/04/06 02:05:21;;;;;;;24.30;15.85;;;;;;;;;;6249165;22;20047;-71
2023/04/06 02:07:51;;;;;;;21.80;14.88;;;;;;;;;;6248936;22;20020;-71
2023/04/06 02:10:27;;;;;;;21.73;15.50;;;;;;;;;;6249113;22;20016;-71
2023/04/06 02:12:58;;;;;;;20.80;15.02;;;;;;;;;;6248634;22;20043;-71
2023/04/06 02:15:27;;;;;;;20.77;14.75;;;;;;;;;;6275992;22;20015;-71
2023/04/06 02:17:55;;;;;;;22.77;15.68;;;;;;;;;;6223435;22;20023;-71
2023/04/06 02:20:24;;;;;;;20.15;14.65;;;;;;;;;;6248747;22;20111;-71
2023/04/06 02:22:52;;;;;;;22.20;16.45;;;;;;;;;;6249365;22;20020;-71
2023/04/06 02:25:21;;;;;;;20.80;15.65;;;;;;;;;;6275866;22;20349;-71
2023/04/06 02:27:49;;;;;;;20.60;14.88;;;;;;;;;;6276377;22;20011;-71
2023/04/06 02:30:16;;;;;;;21.33;15.43;;;;;;;;;;6276079;22;20015;-71
2023/04/06 02:32:44;;;;;;;20.33;14.93;;;;;;;;;;6248743;22;20022;-71
2023/04/06 02:35:13;;;;;;;22.13;15.40;;;;;;;;;;6248859;22;20016;-72
2023/04/06 02:37:40;;;;;;;22.98;15.65;;;;;;;;;;6248803;22;20028;-71
2023/04/06 02:40:08;;;;;;;19.83;15.52;;;;;;;;;;6248903;22;20026;-71
2023/04/06 02:42:36;;;;;;;22.40;15.45;;;;;;;;;;6248641;22;20026;-71
2023/04/06 02:45:05;;;;;;;22.02;16.23;;;;;;;;;;6249182;22;20073;-71
2023/04/06 02:47:38;;;;;;;22.70;16.10;;;;;;;;;;6248854;22;20018;-71
2023/04/06 02:50:06;;;;;;;22.55;15.80;;;;;;;;;;6248806;22;20020;-72
2023/04/06 02:52:39;;;;;;;24.75;15.40;;;;;;;;;;6248697;22;20024;-72
2023/04/06 02:55:08;;;;;;;20.35;14.95;;;;;;;;;;6248934;22;20350;-71
2023/04/06 02:57:36;;;;;;;21.58;15.82;;;;;;;;;;6248772;22;20020;-72
2023/04/06 03:00:04;;;;;;;20.30;15.18;;;;;;;;;;6248490;22;20024;-70
2023/04/06 03:02:38;;;;;;;22.95;16.58;;;;;;;;;;6248702;22;20027;-70
2023/04/06 03:05:10;;;;;;;26.23;15.55;;;;;;;;;;6248614;22;20409;-70
2023/04/06 03:07:41;;;;;;;24.48;15.73;;;;;;;;;;6248342;22;20106;-70
2023/04/06 03:10:15;;;;;;;21.67;14.85;;;;;;;;;;6225144;22;20026;-70
2023/04/06 03:12:44;;;;;;;25.15;15.55;;;;;;;;;;6248700;22;20016;-71
2023/04/06 03:15:35;;;;;;;24.77;16.55;;;;;;;;;;6273868;22;20023;-71
2023/04/06 03:18:12;;;;;;;22.42;15.43;;;;;;;;;;6248339;22;20507;-70
2023/04/06 03:20:44;;;;;;;22.08;15.95;;;;;;;;;;6248206;22;20082;-70
2023/04/06 03:23:14;;;;;;;22.00;15.07;;;;;;;;;;6224044;22;20015;-71
2023/04/06 03:25:43;;;;;;;23.23;16.27;;;;;;;;;;6225978;22;20026;-70
2023/04/06 03:28:15;;;;;;;22.20;15.30;;;;;;;;;;6277854;22;20015;-70
2023/04/06 03:30:56;;;;;;;23.15;16.05;;;;;;;;;;6250687;22;20024;-70
2023/04/06 03:33:55;;;;;;;22.40;14.70;;;;;;;;;;6248837;22;20023;-71
2023/04/06 03:36:30;;;;;;;22.63;16.02;;;;;;;;;;6250742;22;20019;-71
2023/04/06 03:38:58;;;;;;;23.23;15.40;;;;;;;;;;6250559;22;20015;-71
2023/04/06 03:41:26;;;;;;;22.98;16.42;;;;;;;;;;6250364;22;20015;-71
2023/04/06 03:44:02;;;;;;;24.75;16.17;;;;;;;;;;6250352;22;20090;-70
2023/04/06 03:46:30;;;;;;;23.52;15.70;;;;;;;;;;6250666;22;20020;-70
2023/04/06 03:48:59;;;;;;;22.15;14.93;;;;;;;;;;6250658;22;20027;-70
2023/04/06 03:51:27;;;;;;;23.52;16.23;;;;;;;;;;6250211;22;20031;-70
2023/04/06 03:53:55;;;;;;;38.10;17.02;;;;;;;;;;6250316;22;20019;-69
2023/04/06 03:56:22;;;;;;;22.55;15.68;;;;;;;;;;6249768;22;20843;-69
2023/04/06 03:58:51;;;;;;;24.13;15.98;;;;;;;;;;6250656;22;20012;-70
2023/04/06 04:01:20;;;;;;;24.73;16.23;;;;;;;;;;6250355;22;20370;-69
2023/04/06 04:03:48;;;;;;;22.25;15.85;;;;;;;;;;6250266;22;20027;-69
2023/04/06 04:06:18;;;;;;;23.27;16.08;;;;;;;;;;6277537;22;20441;-72
2023/04/06 04:08:46;;;;;;;24.08;16.95;;;;;;;;;;6250031;22;20095;-71
2023/04/06 04:11:15;;;;;;;22.08;16.13;;;;;;;;;;6277365;22;20015;-71
2023/04/06 04:13:46;;;;;;;22.10;15.52;;;;;;;;;;6250127;22;20023;-71
2023/04/06 04:16:14;;;;;;;24.30;16.50;;;;;;;;;;6250017;22;20070;-72
2023/04/06 04:18:43;;;;;;;22.77;15.25;;;;;;;;;;6277346;22;20395;-71
2023/04/06 04:21:11;;;;;;;22.67;15.50;;;;;;;;;;6250005;22;20027;-72
2023/04/06 04:23:38;;;;;;;24.10;15.75;;;;;;;;;;6249940;22;20094;-72
2023/04/06 04:26:06;;;;;;;23.38;15.70;;;;;;;;;;6250377;22;20342;-73
2023/04/06 04:28:34;;;;;;;22.48;16.00;;;;;;;;;;6249935;22;20100;-73
2023/04/06 04:31:02;;;;;;;23.42;15.93;;;;;;;;;;6275837;22;20016;-71
2023/04/06 04:33:33;;;;;;;23.42;15.88;;;;;;;;;;6247795;22;20026;-72
2023/04/06 04:36:04;;;;;;;23.25;15.50;;;;;;;;;;6247654;22;20103;-72
2023/04/06 04:38:38;;;;;;;25.52;15.90;;;;;;;;;;6248787;22;20039;-72
2023/04/06 04:41:05;;;;;;;22.50;14.95;;;;;;;;;;6249540;22;20034;-72
2023/04/06 04:43:36;;;;;;;21.77;14.82;;;;;;;;;;6249939;22;20036;-72
2023/04/06 04:46:04;;;;;;;29.00;15.30;;;;;;;;;;6277142;22;20015;-72
2023/04/06 04:48:40;;;;;;;23.88;14.75;;;;;;;;;;6250121;22;20020;-72
2023/04/06 04:51:08;;;;;;;23.98;15.32;;;;;;;;;;6276619;22;20031;-73
2023/04/06 04:53:53;;;;;;;26.15;15.30;;;;;;;;;;6276786;22;20065;-72
2023/04/06 04:56:25;;;;;;;26.23;15.45;;;;;;;;;;6249420;22;20023;-73
2023/04/06 04:58:57;;;;;;;22.83;15.05;;;;;;;;;;6249911;22;20039;-74
2023/04/06 05:01:28;;;;;;;20.85;14.00;;;;;;;;;;6250087;22;20105;-72
2023/04/06 05:04:01;;;;;;;22.02;15.38;;;;;;;;;;6249819;22;20023;-73
2023/04/06 05:06:29;;;;;;;23.83;14.95;;;;;;;;;;6249641;22;20069;-73
2023/04/06 05:08:58;;;;;;;22.02;14.88;;;;;;;;;;6249803;22;20019;-73
2023/04/06 05:11:26;;;;;;;20.10;14.60;;;;;;;;;;6249646;22;20020;-73
2023/04/06 05:14:00;;;;;;;20.27;14.98;;;;;;;;;;6249727;22;20011;-72
2023/04/06 05:16:28;;;;;;;24.65;14.38;;;;;;;;;;6249612;22;20400;-72
2023/04/06 05:18:56;;;;;;;22.58;15.57;;;;;;;;;;6249703;22;20403;-72
2023/04/06 05:21:30;;;;;;;23.63;14.65;;;;;;;;;;6249575;22;20103;-72
2023/04/06 05:24:04;;;;;;;20.85;15.20;;;;;;;;;;6249889;22;20020;-73
2023/04/06 05:26:33;;;;;;;21.10;15.07;;;;;;;;;;6249526;22;20471;-72
2023/04/06 05:29:06;;;;;;;24.30;14.68;;;;;;;;;;6249545;22;20026;-71
2023/04/06 05:31:37;;;;;;;26.95;16.30;;;;;;;;;;6249486;22;20174;-73
2023/04/06 05:34:05;;;;;;;21.65;14.57;;;;;;;;;;6249820;22;20016;-72
2023/04/06 05:36:36;;;;;;;22.58;15.30;;;;;;;;;;6249322;22;20019;-72
2023/04/06 05:39:09;;;;;;;20.63;14.07;;;;;;;;;;6249809;22;20023;-72
2023/04/06 05:41:45;;;;;;;19.85;14.10;;;;;;;;;;6276816;22;20016;-72
2023/04/06 05:44:14;;;;;;;21.40;15.00;;;;;;;;;;6249314;22;20015;-72
2023/04/06 05:46:45;;;;;;;18.88;14.07;;;;;;;;;;6249439;22;20077;-72
2023/04/06 05:49:16;;;;;;;21.60;13.70;;;;;;;;;;6249163;22;20022;-72
2023/04/06 05:51:44;;;;;;;21.73;14.18;;;;;;;;;;6249242;22;20477;-72
2023/04/06 05:54:11;;;;;;;19.00;13.63;;;;;;;;;;6249305;22;20015;-72
2023/04/06 05:56:40;;;;;;;21.83;14.45;;;;;;;;;;6249277;22;20446;-72
2023/04/06 05:59:11;;;;;;;19.45;13.57;;;;;;;;;;6249336;22;20046;-72
2023/04/06 06:01:40;;;;;;;19.27;12.57;;;;;;;;;;6249606;22;20409;-72
2023/04/06 06:04:07;;;;;;;19.90;13.15;;;;;;;;;;6249294;22;20016;-73
2023/04/06 06:06:38;;;;;;;17.77;13.23;;;;;;;;;;6249208;22;20043;-72
2023/04/06 06:09:17;;;;;;;17.02;12.93;;;;;;;;;;6249650;22;20011;-72
2023/04/06 06:11:56;;;;;;;23.35;13.27;;;;;;;;;;6249230;22;20047;-73
2023/04/06 06:14:28;;;;;;;17.33;12.50;;;;;;;;;;6249151;22;20019;-71
2023/04/06 06:16:56;;;;;;;18.85;13.23;;;;;;;;;;6249825;22;20042;-72
2023/04/06 06:19:24;;;;;;;19.42;13.57;;;;;;;;;;6249166;22;20042;-73
2023/04/06 06:21:55;;;;;;;19.15;13.10;;;;;;;;;;6248970;22;20024;-72
2023/04/06 06:24:23;;;;;;;20.88;13.27;;;;;;;;;;6248801;22;20019;-72
2023/04/06 06:26:51;;;;;;;18.02;13.10;;;;;;;;;;6248791;22;20085;-73
2023/04/06 06:29:24;;;;;;;17.70;12.30;;;;;;;;;;6249262;22;20058;-72
2023/04/06 06:31:51;;;;;;;17.90;12.43;;;;;;;;;;6248819;22;20073;-72
2023/04/06 06:34:20;;;;;;;19.30;12.55;;;;;;;;;;6248808;22;20027;-71
2023/04/06 06:36:48;;;;;;;17.60;12.50;;;;;;;;;;6248894;22;20023;-72
2023/04/06 06:39:20;;;;;;;20.40;12.85;;;;;;;;;;6250652;22;20012;-71
2023/04/06 06:41:49;;;;;;;16.73;12.57;;;;;;;;;;6248974;22;20020;-72
2023/04/06 06:44:21;;;;;;;16.77;12.82;;;;;;;;;;6249149;22;20046;-71
2023/04/06 06:46:50;;;;;;;16.13;12.25;;;;;;;;;;6249078;22;20081;-72
2023/04/06 06:49:18;;;;;;;19.45;12.73;;;;;;;;;;6249104;22;20020;-72
2023/04/06 06:51:46;;;;;;;19.95;13.57;;;;;;;;;;6248940;22;20024;-72
2023/04/06 06:54:13;;;;;;;21.45;12.90;;;;;;;;;;6249027;22;20015;-71
2023/04/06 06:56:41;;;;;;;20.05;12.80;;;;;;;;;;6248957;22;20023;-71
2023/04/06 06:59:09;;;;;;;18.35;12.98;;;;;;;;;;6248668;22;20026;-73
2023/04/06 07:01:37;;;;;;;41.85;13.57;;;;;;;;;;6248864;22;20030;-73
2023/04/06 07:04:05;;;;;;;17.52;12.98;;;;;;;;;;6249190;22;20020;-72
2023/04/06 07:06:33;;;;;;;19.85;12.65;;;;;;;;;;6248746;22;20031;-72
2023/04/06 07:09:00;;;;;;;19.90;12.85;;;;;;;;;;6275907;22;20342;-72
2023/04/06 07:11:28;;;;;;;18.52;12.25;;;;;;;;;;6248985;22;20103;-72
2023/04/06 07:13:55;;;;;;;15.88;12.15;;;;;;;;;;6248595;22;20019;-73
2023/04/06 07:16:23;;;;;;;17.67;12.73;;;;;;;;;;6248409;22;20066;-72
2023/04/06 07:18:51;;;;;;;17.33;12.68;;;;;;;;;;6248357;22;20024;-72
2023/04/06 07:21:19;;;;;;;17.73;13.00;;;;;;;;;;6248870;22;20030;-72
2023/04/06 07:23:47;;;;;;;21.42;13.27;;;;;;;;;;6248951;22;20015;-72
2023/04/06 07:26:16;;;;;;;15.70;12.15;;;;;;;;;;6248910;22;20016;-73
2023/04/06 07:28:44;;;;;;;16.05;12.48;;;;;;;;;;6275821;22;20046;-71
2023/04/06 07:31:12;;;;;;;16.70;12.50;;;;;;;;;;6248655;22;20399;-71
2023/04/06 07:33:40;;;;;;;16.67;12.48;;;;;;;;;;6248774;22;20127;-71
2023/04/06 07:36:07;;;;;;;18.02;12.77;;;;;;;;;;6248438;22;20102;-71
2023/04/06 07:38:35;;;;;;;20.33;13.85;;;;;;;;;;6248678;22;20046;-71
2023/04/06 07:41:03;;;;;;;19.80;12.90;;;;;;;;;;6248662;22;20462;-71
2023/04/06 07:43:32;;;;;;;20.33;12.57;;;;;;;;;;6248444;22;20020;-70
2023/04/06 07:46:00;;;;;;;15.85;12.07;;;;;;;;;;6248603;22;20020;-71
2023/04/06 07:48:28;;;;;;;17.15;12.50;;;;;;;;;;6248604;22;20023;-71
2023/04/06 07:51:02;;;;;;;21.23;13.18;;;;;;;;;;6248807;22;20026;-71
2023/04/06 07:53:31;;;;;;;16.52;12.85;;;;;;;;;;6248533;22;20511;-71
2023/04/06 07:55:59;;;;;;;18.65;12.85;;;;;;;;;;6275648;22;20016;-70
2023/04/06 07:58:27;;;;;;;15.85;12.07;;;;;;;;;;6275940;22;20026;-70
2023/04/06 08:00:55;;;;;;;19.40;12.60;;;;;;;;;;6275608;22;20016;-70
2023/04/06 08:03:25;;;;;;;18.63;13.40;;;;;;;;;;6275785;22;20015;-70
2023/04/06 08:05:53;;;;;;;18.50;12.80;;;;;;;;;;6275607;22;20083;-70
2023/04/06 08:08:21;;;;;;;18.45;12.77;;;;;;;;;;6275751;22;20026;-70
2023/04/06 08:10:49;;;;;;;24.00;12.80;;;;;;;;;;6275849;22;20087;-70
2023/04/06 08:13:16;;;;;;;19.58;13.13;;;;;;;;;;6277457;22;20035;-70
2023/04/06 08:15:44;;;;;;;15.57;12.70;;;;;;;;;;6277522;22;20026;-71
2023/04/06 08:18:12;;;;;;;17.70;12.05;;;;;;;;;;6277156;22;20015;-71
2023/04/06 08:20:40;;;;;;;17.65;12.20;;;;;;;;;;6277671;22;20023;-71
2023/04/06 08:23:09;;;;;;;23.42;12.43;;;;;;;;;;6250485;22;20015;-71
2023/04/06 08:25:37;;;;;;;16.92;12.32;;;;;;;;;;6277157;22;20384;-71
2023/04/06 08:28:04;;;;;;;17.90;12.32;;;;;;;;;;6277256;22;20091;-72
2023/04/06 08:30:32;;;;;;;18.45;12.40;;;;;;;;;;6277222;22;20160;-71
2023/04/06 08:33:00;;;;;;;15.50;12.20;;;;;;;;;;6277070;22;20342;-71
2023/04/06 08:35:27;;;;;;;24.30;12.73;;;;;;;;;;6250100;22;20103;-70
2023/04/06 08:37:55;;;;;;;18.02;12.07;;;;;;;;;;6276998;22;20016;-70
2023/04/06 08:40:23;;;;;;;16.33;11.85;;;;;;;;;;6277093;22;20019;-70
2023/04/06 08:42:52;;;;;;;20.52;12.05;;;;;;;;;;6276971;22;20016;-70
2023/04/06 08:45:21;;;;;;;14.20;12.55;;;;;;;;;;6277308;22;20022;-70
2023/04/06 08:47:52;;;;;;;17.25;12.48;;;;;;;;;;6276900;22;20026;-70
2023/04/06 08:50:20;;;;;;;16.35;12.07;;;;;;;;;;6276971;22;20503;-70
2023/04/06 08:52:48;;;;;;;16.55;11.55;;;;;;;;;;6276773;22;20445;-71
2023/04/06 08:55:16;;;;;;;14.68;12.07;;;;;;;;;;6277264;22;20015;-70
2023/04/06 08:57:44;;;;;;;19.90;12.02;;;;;;;;;;6276798;22;20020;-71
2023/04/06 09:00:12;;;;;;;13.95;11.63;;;;;;;;;;6276752;22;20357;-71
2023/04/06 09:02:40;;;;;;;17.00;11.30;;;;;;;;;;6276857;22;20015;-72
2023/04/06 09:05:09;;;;;;;16.83;11.88;;;;;;;;;;6249954;22;20083;-71
2023/04/06 09:07:37;;;;;;;16.67;13.13;;;;;;;;;;6276748;22;20012;-71
2023/04/06 09:10:06;;;;;;;19.33;11.63;;;;;;;;;;6276695;22;20078;-71
2023/04/06 09:12:34;;;;;;;14.38;11.32;;;;;;;;;;6276656;22;20279;-71
2023/04/06 09:15:02;;;;;;;13.95;11.20;;;;;;;;;;6276464;22;20027;-71
2023/04/06 09:17:32;;;;;;;13.73;11.38;;;;;;;;;;6276250;22;20062;-71
2023/04/06 09:20:00;;;;;;;17.10;12.43;;;;;;;;;;6249354;22;20043;-71
2023/04/06 09:22:35;;;;;;;15.48;11.82;;;;;;;;;;6276583;22;20330;-70
2023/04/06 09:25:03;;;;;;;;;;;;;;;;;;6277008;22;20085;-70
2023/04/06 09:27:34;;;;;;;15.93;12.18;;;;;;;;;;6276450;22;19915;-71
2023/04/06 09:30:05;;;;;;;21.27;12.88;;;;;;;;;;6276352;22;20042;-70
2023/04/06 09:32:33;;;;;;;16.10;12.00;;;;;;;;;;6276758;22;20372;-71
2023/04/06 09:35:07;;;;;;;14.95;11.25;;;;;;;;;;6276365;22;20016;-70
2023/04/06 09:37:35;;;;;;;18.52;10.88;;;;;;;;;;6276260;22;20015;-71
2023/04/06 09:40:05;;;;;;;16.38;10.02;;;;;;;;;;6276920;22;20373;-70
2023/04/06 09:42:34;;;;;;;15.38;9.95;;;;;;;;;;6276294;22;20040;-71
2023/04/06 09:45:02;;;;;;;15.65;11.15;;;;;;;;;;6276554;22;20023;-70
2023/04/06 09:47:30;;;;;;;21.55;11.05;;;;;;;;;;6276777;22;20046;-70
2023/04/06 09:49:58;;;;;;;16.13;11.40;;;;;;;;;;6276442;22;20012;-70
2023/04/06 09:52:33;;;;;;;14.88;11.50;;;;;;;;;;6276248;22;20020;-70
2023/04/06 09:55:03;;;;;;;17.30;10.95;;;;;;;;;;6276602;22;20083;-70
2023/04/06 09:57:50;;;;;;;14.27;11.10;;;;;;;;;;6276051;22;20016;-70
2023/04/06 10:00:19;;;;;;;15.43;10.85;;;;;;;;;;6276200;22;20012;-71
2023/04/06 10:02:46;;;;;;;19.60;10.57;;;;;;;;;;6276511;22;20020;-71
2023/04/06 10:05:20;;;;;;;14.45;10.57;;;;;;;;;;6249270;22;20016;-71
2023/04/06 10:07:50;;;;;;;13.32;10.13;;;;;;;;;;6276437;22;20279;-71
2023/04/06 10:10:23;;;;;;;13.73;10.75;;;;;;;;;;6275967;22;20049;-71
2023/04/06 10:12:50;;;;;;;15.48;10.60;;;;;;;;;;6275919;22;20382;-72
2023/04/06 10:15:18;;;;;;;11.73;9.63;;;;;;;;;;6249210;22;20046;-71
2023/04/06 10:17:49;;;;;;;15.40;10.48;;;;;;;;;;6275482;22;20026;-72
2023/04/06 10:20:21;;;;;;;14.48;10.55;;;;;;;;;;6275811;22;20365;-70
2023/04/06 10:22:52;;;;;;;12.23;9.70;;;;;;;;;;6275778;22;20069;-71
2023/04/06 10:25:33;;;;;;;12.98;10.02;;;;;;;;;;6275677;22;20095;-71
2023/04/06 10:28:11;;;;;;;16.10;10.13;;;;;;;;;;6275708;22;20507;-71
2023/04/06 10:30:43;;;;;;;10.93;8.63;;;;;;;;;;6275782;22;20023;-71
2023/04/06 10:33:18;;;;;;;22.55;10.05;;;;;;;;;;6275399;22;20016;-71
2023/04/06 10:35:46;;;;;;;15.50;9.93;;;;;;;;;;6275534;22;20019;-71
2023/04/06 10:38:14;;;;;;;16.13;9.88;;;;;;;;;;6275461;22;20016;-71
2023/04/06 10:40:42;;;;;;;13.18;9.32;;;;;;;;;;6275897;22;20394;-71
2023/04/06 10:43:11;;;;;;;10.57;8.38;;;;;;;;;;6249172;22;20323;-71
2023/04/06 10:45:39;;;;;;;14.52;9.05;;;;;;;;;;6248281;22;20033;-71
2023/04/06 10:48:14;;;;;;;11.40;8.57;;;;;;;;;;6248633;22;20434;-70
2023/04/06 10:50:44;;;;;;;11.90;8.88;;;;;;;;;;6275610;22;20073;-71
2023/04/06 10:53:12;;;;;;;14.95;8.85;;;;;;;;;;6275619;22;20015;-71
2023/04/06 10:55:41;;;;;;;13.93;8.65;;;;;;;;;;6275954;22;20018;-71
2023/04/06 10:58:08;;;;;;;14.20;8.63;;;;;;;;;;6275411;22;20023;-70
2023/04/06 11:00:36;;;;;;;14.27;8.60;;;;;;;;;;6275518;22;20039;-71
2023/04/06 11:03:17;;;;;;;13.45;8.40;;;;;;;;;;6251712;22;20023;-71
2023/04/06 11:05:45;;;;;;;12.32;8.85;;;;;;;;;;6275293;22;20008;-71
2023/04/06 11:08:33;;;;;;;11.55;8.15;;;;;;;;;;6275606;22;20369;-71
2023/04/06 11:11:05;;;;;;;10.95;8.10;;;;;;;;;;6248394;22;20360;-71
2023/04/06 11:13:40;;;;;;;13.60;8.52;;;;;;;;;;6275254;22;20338;-70
2023/04/06 11:16:07;;;;;;;12.10;9.55;;;;;;;;;;6275412;22;20019;-71
2023/04/06 11:18:35;;;;;;;12.45;8.32;;;;;;;;;;6275164;22;20022;-70
2023/04/06 11:21:03;;;;;;;11.38;8.60;;;;;;;;;;6248045;22;20016;-71
2023/04/06 11:23:30;;;;;;;10.13;8.50;;;;;;;;;;6275264;22;20043;-70
2023/04/06 11:25:58;;;;;;;16.55;9.10;;;;;;;;;;6275439;22;20048;-71
2023/04/06 11:28:25;;;;;;;13.85;7.93;;;;;;;;;;6275694;22;20083;-71
2023/04/06 11:30:53;;;;;;;12.48;7.80;;;;;;;;;;6275465;22;20020;-71
2023/04/06 11:33:24;;;;;;;13.93;8.43;;;;;;;;;;6247769;22;20027;-71
2023/04/06 11:35:52;;;;;;;10.98;7.97;;;;;;;;;;6275252;22;20039;-71
2023/04/06 11:38:20;;;;;;;10.07;7.85;;;;;;;;;;6275803;22;20074;-71
2023/04/06 11:40:53;;;;;;;12.13;7.93;;;;;;;;;;6248460;22;20022;-71
2023/04/06 11:43:27;;;;;;;11.63;7.63;;;;;;;;;;6275155;22;20116;-71
2023/04/06 11:46:00;;;;;;;13.45;7.53;;;;;;;;;;6276230;22;20046;-71
2023/04/06 11:48:28;;;;;;;10.20;7.47;;;;;;;;;;6277217;22;20086;-71
2023/04/06 11:50:57;;;;;;;9.43;7.78;;;;;;;;;;6277445;22;20023;-71
2023/04/06 11:53:25;;;;;;;14.00;7.68;;;;;;;;;;6277036;22;20083;-71
2023/04/06 11:55:52;;;;;;;10.27;6.68;;;;;;;;;;6276964;22;20015;-71
2023/04/06 11:58:20;;;;;;;10.27;7.28;;;;;;;;;;6277404;22;20046;-71
2023/04/06 12:00:47;;;;;;;11.10;7.07;;;;;;;;;;6249867;22;20448;-72
2023/04/06 12:03:15;;;;;;;7.38;5.65;;;;;;;;;;6276827;22;20019;-71
2023/04/06 12:05:43;;;;;;;8.98;5.32;;;;;;;;;;6277305;22;20430;-72
2023/04/06 12:08:11;;;;;;;8.45;6.15;;;;;;;;;;6277384;22;20091;-71
2023/04/06 12:10:38;;;;;;;8.60;6.20;;;;;;;;;;6249838;22;20016;-71
2023/04/06 12:13:06;;;;;;;11.65;6.30;;;;;;;;;;6276780;22;20058;-71
2023/04/06 12:15:33;;;;;;;10.55;5.85;;;;;;;;;;6276916;22;20016;-71
2023/04/06 12:18:01;;;;;;;7.22;5.25;;;;;;;;;;6275716;22;20016;-69
2023/04/06 12:20:29;;;;;;;11.68;6.00;;;;;;;;;;6276153;22;20034;-69
2023/04/06 12:22:57;;;;;;;7.38;5.75;;;;;;;;;;6276594;22;20450;-69
2023/04/06 12:25:24;;;;;;;8.13;5.70;;;;;;;;;;6276272;22;20085;-69
2023/04/06 12:27:52;;;;;;;9.60;6.07;;;;;;;;;;6276808;22;20156;-68
2023/04/06 12:30:19;;;;;;;9.95;5.63;;;;;;;;;;6276620;22;20355;-68
2023/04/06 12:32:47;;;;;;;9.10;5.78;;;;;;;;;;6276632;22;20019;-68
2023/04/06 12:35:17;;;;;;;8.35;5.22;;;;;;;;;;6276403;22;20042;-68
2023/04/06 12:37:45;;;;;;;9.25;5.85;;;;;;;;;;6276762;22;20119;-69
2023/04/06 12:40:14;;;;;;;10.52;5.80;;;;;;;;;;6276798;22;20081;-68
2023/04/06 12:42:42;;;;;;;10.65;6.07;;;;;;;;;;6277126;22;20022;-68
2023/04/06 12:45:10;;;;;;;11.52;5.95;;;;;;;;;;6224862;22;20016;-68
2023/04/06 12:47:37;;;;;;;8.52;5.38;;;;;;;;;;6276857;22;20012;-68
2023/04/06 12:50:05;;;;;;;7.72;5.45;;;;;;;;;;6276793;22;20016;-68
2023/04/06 12:52:35;;;;;;;9.23;5.38;;;;;;;;;;6276950;22;20122;-68
2023/04/06 12:55:03;;;;;;;9.82;5.38;;;;;;;;;;6276902;22;20012;-67
2023/04/06 12:57:30;;;;;;;15.30;6.25;;;;;;;;;;6276625;22;20334;-68
2023/04/06 12:59:58;;;;;;;8.77;4.75;;;;;;;;;;6276926;22;20089;-68
2023/04/06 13:02:26;;;;;;;15.50;5.30;;;;;;;;;;6277050;22;20417;-68
2023/04/06 13:04:54;;;;;;;9.23;5.65;;;;;;;;;;6276849;22;20518;-68
2023/04/06 13:07:22;;;;;;;13.45;5.38;;;;;;;;;;6276915;22;20019;-68
2023/04/06 13:09:50;;;;;;;8.82;5.10;;;;;;;;;;6276909;22;20018;-68
2023/04/06 13:12:17;;;;;;;8.00;4.32;;;;;;;;;;6276626;22;20065;-68
2023/04/06 13:14:50;;;;;;;8.68;4.50;;;;;;;;;;6276713;22;20125;-68
2023/04/06 13:17:18;;;;;;;9.48;4.80;;;;;;;;;;6276902;22;20042;-68
2023/04/06 13:19:45;;;;;;;10.30;4.82;;;;;;;;;;6276641;22;20027;-69
2023/04/06 13:22:13;;;;;;;6.05;4.60;;;;;;;;;;6249567;22;20099;-67
2023/04/06 13:24:40;;;;;;;7.60;4.60;;;;;;;;;;6276758;22;20020;-67
2023/04/06 13:27:08;;;;;;;6.13;4.57;;;;;;;;;;6276667;22;20038;-68
2023/04/06 13:29:35;;;;;;;6.57;4.20;;;;;;;;;;6276665;22;20016;-67
2023/04/06 13:32:03;;;;;;;7.30;4.45;;;;;;;;;;6276950;22;20349;-67
2023/04/06 13:34:30;;;;;;;8.52;4.32;;;;;;;;;;6276493;22;20016;-67
2023/04/06 13:36:58;;;;;;;5.75;4.07;;;;;;;;;;6276526;22;20012;-67
2023/04/06 13:39:26;;;;;;;8.23;4.05;;;;;;;;;;6276498;22;20027;-69
2023/04/06 13:41:56;;;;;;;9.50;4.00;;;;;;;;;;6276834;22;20095;-67
2023/04/06 13:44:24;;;;;;;6.00;4.03;;;;;;;;;;6276562;22;20027;-67
2023/04/06 13:46:53;;;;;;;6.50;4.03;;;;;;;;;;6276725;22;20091;-68
2023/04/06 13:49:21;;;;;;;8.30;4.82;;;;;;;;;;6275862;22;20446;-68
2023/04/06 13:51:49;;;;;;;8.48;4.40;;;;;;;;;;6276146;22;20130;-68
2023/04/06 13:54:16;;;;;;;8.43;4.88;;;;;;;;;;6276281;22;20012;-69
2023/04/06 13:56:44;;;;;;;10.75;4.72;;;;;;;;;;6276065;22;20503;-68
2023/04/06 13:59:11;;;;;;;11.15;4.38;;;;;;;;;;6276250;22;20019;-68
2023/04/06 14:01:39;;;;;;;7.18;4.70;;;;;;;;;;6249517;22;20022;-68
2023/04/06 14:04:07;;;;;;;9.43;4.75;;;;;;;;;;6249311;22;20023;-68
2023/04/06 14:06:35;;;;;;;10.18;4.38;;;;;;;;;;6275350;22;20022;-68
2023/04/06 14:09:02;;;;;;;8.65;4.90;;;;;;;;;;6274981;22;20460;-68
2023/04/06 14:11:30;;;;;;;12.00;4.85;;;;;;;;;;6275795;22;20338;-68
2023/04/06 14:13:57;;;;;;;7.63;4.55;;;;;;;;;;6275665;22;20505;-68
2023/04/06 14:16:25;;;;;;;10.18;4.55;;;;;;;;;;6276024;22;20011;-68
2023/04/06 14:18:53;;;;;;;7.45;4.15;;;;;;;;;;6276140;22;20102;-68
2023/04/06 14:21:20;;;;;;;7.88;4.43;;;;;;;;;;6249273;22;20030;-68
2023/04/06 14:23:48;;;;;;;6.95;4.53;;;;;;;;;;6276286;22;20056;-68
2023/04/06 14:26:16;;;;;;;7.30;3.97;;;;;;;;;;6275886;22;20023;-68
2023/04/06 14:28:44;;;;;;;6.85;4.35;;;;;;;;;;6275983;22;20023;-68
2023/04/06 14:31:12;;;;;;;9.35;4.00;;;;;;;;;;6275821;22;20434;-68
2023/04/06 14:33:40;;;;;;;7.10;3.83;;;;;;;;;;6276174;22;20019;-68
2023/04/06 14:36:08;;;;;;;6.18;4.22;;;;;;;;;;6249310;22;20019;-68
2023/04/06 14:38:36;;;;;;;8.05;4.68;;;;;;;;;;6249265;22;20031;-68